Time;durP1;ratioP1;P1;durP2;ratioP2;P2;SDS_P1;SDS_P2;PMS_P1;PMS_P2;Temp;Humidity;BMP_temperature;BMP_pressure;BME280_temperature;BME280_humidity;BME280_pressure;Samples;Min_cycle;Max_cycle;Signal;HPM_P1;HPM_P2
2022/09/22 00:00:54;;;;;;;1.80;1.02;;;5.30;99.90;;;;;;5092639;28;20024;-72
2022/09/22 00:03:19;;;;;;;4.53;1.55;;;5.30;99.90;;;;;;5074612;28;20024;-72
2022/09/22 00:05:45;;;;;;;3.75;1.77;;;5.30;99.90;;;;;;5092685;28;20086;-72
2022/09/22 00:08:11;;;;;;;3.22;1.30;;;5.30;99.90;;;;;;5092957;28;20028;-72
2022/09/22 00:10:36;;;;;;;2.90;0.98;;;5.30;99.90;;;;;;5092587;28;20036;-72
2022/09/22 00:13:02;;;;;;;4.38;1.05;;;5.20;99.90;;;;;;5094280;28;20055;-72
2022/09/22 00:15:29;;;;;;;3.03;0.90;;;5.20;99.90;;;;;;5096224;28;20057;-72
2022/09/22 00:17:55;;;;;;;6.07;1.10;;;5.20;99.90;;;;;;5096294;28;20095;-72
2022/09/22 00:20:20;;;;;;;1.40;0.75;;;5.20;99.90;;;;;;5096151;28;20047;-72
2022/09/22 00:22:50;;;;;;;1.30;0.80;;;5.10;99.90;;;;;;5095937;28;20063;-72
2022/09/22 00:25:17;;;;;;;3.13;1.40;;;5.10;99.90;;;;;;5096123;28;20052;-72
2022/09/22 00:27:43;;;;;;;1.58;0.82;;;5.10;99.90;;;;;;5096053;28;20361;-72
2022/09/22 00:30:09;;;;;;;4.15;0.90;;;5.00;99.90;;;;;;5096408;28;20429;-72
2022/09/22 00:32:39;;;;;;;1.95;0.90;;;5.00;99.90;;;;;;5096544;28;20028;-72
2022/09/22 00:35:05;;;;;;;1.67;0.95;;;5.00;99.90;;;;;;5077838;28;20056;-72
2022/09/22 00:37:31;;;;;;;1.50;0.88;;;4.90;99.90;;;;;;5095659;28;20492;-72
2022/09/22 00:39:57;;;;;;;3.78;0.85;;;4.90;99.90;;;;;;5095802;28;20436;-72
2022/09/22 00:42:24;;;;;;;1.90;1.00;;;4.80;99.90;;;;;;5096074;28;20031;-72
2022/09/22 00:44:50;;;;;;;2.20;0.98;;;4.80;99.90;;;;;;5095711;28;20035;-72
2022/09/22 00:47:39;;;;;;;1.67;0.88;;;4.70;99.90;;;;;;5095679;28;20051;-72
2022/09/22 00:50:17;;;;;;;3.47;0.70;;;4.70;99.90;;;;;;5095564;28;20610;-72
2022/09/22 00:52:46;;;;;;;3.15;0.98;;;4.60;99.90;;;;;;5095601;28;20423;-72
2022/09/22 00:55:43;;;;;;;2.63;1.00;;;4.60;99.90;;;;;;5095772;28;20031;-72
2022/09/22 00:58:14;;;;;;;2.28;0.90;;;4.60;99.90;;;;;;5089333;28;20035;-72
2022/09/22 01:00:40;;;;;;;1.55;0.82;;;4.60;99.90;;;;;;5094563;28;20024;-72
2022/09/22 01:03:11;;;;;;;5.93;1.70;;;4.50;99.90;;;;;;5095419;28;20028;-72
2022/09/22 01:05:39;;;;;;;1.63;0.90;;;4.50;99.90;;;;;;5095144;28;20020;-73
2022/09/22 01:08:06;;;;;;;1.52;0.80;;;4.50;99.90;;;;;;5095307;28;20118;-73
2022/09/22 01:10:32;;;;;;;2.65;1.25;;;4.50;99.90;;;;;;5095196;28;20047;-73
2022/09/22 01:13:09;;;;;;;6.13;2.30;;;4.50;99.90;;;;;;5077054;28;20083;-72
2022/09/22 01:15:46;;;;;;;7.10;3.50;;;4.50;99.90;;;;;;5094920;28;20031;-73
2022/09/22 01:18:41;;;;;;;5.10;2.20;;;4.50;99.90;;;;;;5076947;28;20031;-73
2022/09/22 01:21:20;;;;;;;2.45;1.00;;;4.50;99.90;;;;;;5094804;28;20019;-73
2022/09/22 01:24:10;;;;;;;2.55;0.82;;;4.50;99.90;;;;;;5094631;28;20457;-73
2022/09/22 01:27:00;;;;;;;2.85;1.10;;;4.40;99.90;;;;;;5094967;28;20016;-72
2022/09/22 01:29:31;;;;;;;2.78;1.40;;;4.40;99.90;;;;;;5094883;28;20016;-72
2022/09/22 01:32:16;;;;;;;;;;;4.40;99.90;;;;;;5095208;28;20027;-72
2022/09/22 01:34:50;;;;;;;2.28;0.90;;;4.50;99.90;;;;;;5076517;28;20275;-72
2022/09/22 01:37:44;;;;;;;3.22;1.10;;;4.50;99.90;;;;;;5094572;28;20016;-72
2022/09/22 01:40:41;;;;;;;2.92;1.05;;;4.50;99.90;;;;;;5076432;28;20027;-73
2022/09/22 01:43:15;;;;;;;3.25;1.00;;;4.40;99.90;;;;;;5066557;28;20426;-72
2022/09/22 01:45:45;;;;;;;2.45;1.13;;;4.40;99.90;;;;;;5076383;28;20026;-72
2022/09/22 01:48:23;;;;;;;2.97;1.20;;;4.50;99.90;;;;;;5094462;28;20024;-73
2022/09/22 01:51:07;;;;;;;2.78;1.20;;;4.50;99.90;;;;;;5094192;28;20364;-73
2022/09/22 01:53:46;;;;;;;2.33;1.15;;;4.50;99.90;;;;;;5094997;28;20066;-73
2022/09/22 01:56:14;;;;;;;3.33;1.23;;;4.50;99.90;;;;;;5076065;28;20031;-73
2022/09/22 01:58:52;;;;;;;3.20;1.65;;;4.50;99.90;;;;;;5094261;28;20020;-73
2022/09/22 02:01:22;;;;;;;4.13;1.83;;;4.50;99.90;;;;;;5094340;28;20017;-73
2022/09/22 02:03:50;;;;;;;4.28;1.88;;;4.50;99.90;;;;;;5076110;28;20039;-73
2022/09/22 02:06:25;;;;;;;5.80;1.92;;;4.50;99.90;;;;;;5093968;28;20020;-73
2022/09/22 02:08:59;;;;;;;4.43;2.15;;;4.50;99.90;;;;;;5094392;28;20497;-73
2022/09/22 02:11:24;;;;;;;4.70;2.30;;;4.50;99.90;;;;;;5094054;28;20396;-73
2022/09/22 02:13:50;;;;;;;5.03;2.42;;;4.50;99.90;;;;;;5094076;28;20031;-73
2022/09/22 02:16:19;;;;;;;6.40;2.80;;;4.50;99.90;;;;;;5075689;28;20024;-73
2022/09/22 02:19:16;;;;;;;9.23;4.93;;;4.50;99.90;;;;;;5094208;28;20016;-73
2022/09/22 02:21:44;;;;;;;15.57;7.93;;;4.50;99.90;;;;;;5094145;28;20379;-73
2022/09/22 02:24:28;;;;;;;15.20;7.68;;;4.50;99.90;;;;;;5075652;28;20506;-73
2022/09/22 02:27:00;;;;;;;8.13;4.60;;;4.50;99.90;;;;;;5093785;28;20024;-73
2022/09/22 02:29:30;;;;;;;5.13;2.63;;;4.50;99.90;;;;;;5093820;28;20020;-73
2022/09/22 02:31:57;;;;;;;4.70;2.28;;;4.50;99.90;;;;;;5093722;28;20035;-73
2022/09/22 02:34:23;;;;;;;4.05;1.95;;;4.50;99.90;;;;;;5093661;28;20107;-73
2022/09/22 02:37:02;;;;;;;3.00;1.77;;;4.40;99.90;;;;;;5093129;28;20095;-73
2022/09/22 02:39:33;;;;;;;4.13;2.22;;;4.40;99.90;;;;;;5093661;28;20031;-73
2022/09/22 02:42:05;;;;;;;3.83;1.80;;;4.40;99.90;;;;;;5093558;28;20023;-73
2022/09/22 02:44:54;;;;;;;3.75;1.95;;;4.40;99.90;;;;;;5093535;28;20070;-73
2022/09/22 02:47:46;;;;;;;3.60;2.20;;;4.40;99.90;;;;;;5092848;28;20032;-72
2022/09/22 02:50:16;;;;;;;4.43;2.35;;;4.40;99.90;;;;;;5093308;28;20024;-72
2022/09/22 02:52:41;;;;;;;4.30;2.50;;;4.40;99.90;;;;;;5093189;28;20035;-73
2022/09/22 02:55:08;;;;;;;7.05;3.60;;;4.40;99.90;;;;;;5093417;28;20111;-73
2022/09/22 02:57:34;;;;;;;6.60;3.35;;;4.30;99.90;;;;;;5075485;28;20032;-73
2022/09/22 03:00:01;;;;;;;6.30;3.42;;;4.30;99.90;;;;;;5093504;28;20078;-73
2022/09/22 03:02:26;;;;;;;7.47;3.17;;;4.10;99.90;;;;;;5093534;28;20030;-73
2022/09/22 03:04:52;;;;;;;5.95;2.88;;;4.10;99.90;;;;;;5075170;28;20119;-73
2022/09/22 03:07:18;;;;;;;4.25;2.35;;;4.10;99.90;;;;;;5093200;28;20032;-73
2022/09/22 03:09:43;;;;;;;4.82;2.47;;;4.10;99.90;;;;;;5093140;28;20028;-73
2022/09/22 03:12:09;;;;;;;5.38;2.10;;;4.10;99.90;;;;;;5093257;28;20028;-73
2022/09/22 03:14:35;;;;;;;5.28;2.50;;;4.10;99.90;;;;;;5093038;28;20036;-73
2022/09/22 03:17:00;;;;;;;4.95;2.72;;;4.10;99.90;;;;;;5093445;28;20024;-73
2022/09/22 03:19:26;;;;;;;6.55;3.65;;;4.10;99.90;;;;;;5093358;28;20107;-73
2022/09/22 03:21:52;;;;;;;9.70;6.05;;;4.10;99.90;;;;;;5074735;28;20149;-73
2022/09/22 03:24:18;;;;;;;15.35;8.80;;;4.20;99.90;;;;;;5074914;28;20119;-73
2022/09/22 03:26:43;;;;;;;18.98;10.48;;;4.20;99.90;;;;;;5093114;28;20024;-73
2022/09/22 03:29:09;;;;;;;17.52;9.05;;;4.20;99.90;;;;;;5093791;28;20162;-73
2022/09/22 03:31:35;;;;;;;12.23;6.15;;;4.20;99.90;;;;;;5092990;28;20054;-74
2022/09/22 03:34:00;;;;;;;7.38;3.83;;;4.20;99.90;;;;;;5093282;28;20024;-74
2022/09/22 03:36:26;;;;;;;5.20;2.40;;;4.20;99.90;;;;;;5093045;28;20153;-74
2022/09/22 03:38:52;;;;;;;4.00;1.63;;;4.10;99.90;;;;;;5093475;28;20506;-74
2022/09/22 03:41:18;;;;;;;2.28;1.35;;;4.00;99.90;;;;;;5092865;28;20020;-74
2022/09/22 03:43:43;;;;;;;1.85;1.17;;;3.80;99.90;;;;;;5093158;28;20040;-74
2022/09/22 03:46:09;;;;;;;2.15;1.35;;;3.70;99.90;;;;;;5092888;28;20032;-74
2022/09/22 03:48:35;;;;;;;2.95;1.55;;;3.60;99.90;;;;;;5095227;28;20035;-74
2022/09/22 03:51:01;;;;;;;4.82;2.17;;;3.50;99.90;;;;;;5096637;28;20059;-74
2022/09/22 03:53:27;;;;;;;6.88;2.60;;;3.40;99.90;;;;;;5096489;28;20495;-74
2022/09/22 03:56:03;;;;;;;7.18;1.90;;;3.40;99.90;;;;;;5096849;28;20482;-74
2022/09/22 03:58:29;;;;;;;4.07;1.70;;;3.30;99.90;;;;;;5096633;28;20085;-74
2022/09/22 04:00:55;;;;;;;5.47;1.40;;;3.30;99.90;;;;;;5096499;28;20520;-74
2022/09/22 04:03:23;;;;;;;3.67;1.60;;;3.30;99.90;;;;;;5097078;28;20372;-75
2022/09/22 04:05:50;;;;;;;6.82;3.17;;;3.30;99.90;;;;;;5096478;28;20062;-74
2022/09/22 04:08:16;;;;;;;8.07;2.72;;;3.40;99.90;;;;;;5096266;28;20020;-74
2022/09/22 04:10:44;;;;;;;5.38;2.13;;;3.40;99.90;;;;;;5096373;28;20425;-74
2022/09/22 04:13:10;;;;;;;4.30;2.08;;;3.40;99.90;;;;;;5096669;28;20142;-74
2022/09/22 04:15:36;;;;;;;5.15;2.38;;;3.40;99.90;;;;;;5078223;28;20024;-74
2022/09/22 04:18:01;;;;;;;6.72;2.40;;;3.40;99.90;;;;;;5096263;28;20025;-74
2022/09/22 04:20:27;;;;;;;5.22;2.78;;;3.40;99.90;;;;;;5096381;28;20024;-74
2022/09/22 04:22:53;;;;;;;6.05;2.92;;;3.40;99.90;;;;;;5095920;28;20472;-74
2022/09/22 04:25:18;;;;;;;9.95;3.83;;;3.50;99.90;;;;;;5096681;28;20032;-75
2022/09/22 04:27:44;;;;;;;9.70;4.43;;;3.50;99.90;;;;;;5096125;28;20036;-74
2022/09/22 04:30:10;;;;;;;7.65;4.00;;;3.40;99.90;;;;;;5095922;28;20107;-74
2022/09/22 04:32:36;;;;;;;4.63;3.10;;;3.40;99.90;;;;;;5096539;28;20039;-75
2022/09/22 04:35:02;;;;;;;5.57;2.97;;;3.40;99.90;;;;;;5096074;28;20407;-75
2022/09/22 04:37:28;;;;;;;5.65;2.85;;;3.40;99.90;;;;;;5095805;28;20070;-75
2022/09/22 04:39:54;;;;;;;6.60;2.95;;;3.40;99.90;;;;;;5096319;28;20413;-74
2022/09/22 04:42:20;;;;;;;6.15;3.38;;;3.30;99.90;;;;;;5077612;28;20476;-75
2022/09/22 04:44:46;;;;;;;5.55;2.75;;;3.40;99.90;;;;;;5095761;28;20537;-75
2022/09/22 04:47:12;;;;;;;4.07;2.60;;;3.40;99.90;;;;;;5095566;28;20028;-75
2022/09/22 04:49:38;;;;;;;3.67;1.92;;;3.30;99.90;;;;;;5095530;28;20038;-75
2022/09/22 04:52:04;;;;;;;7.88;3.65;;;3.30;99.90;;;;;;5095352;28;20471;-75
2022/09/22 04:54:30;;;;;;;12.70;7.05;;;3.20;99.90;;;;;;5095504;28;20036;-75
2022/09/22 04:56:55;;;;;;;8.05;5.15;;;3.30;99.90;;;;;;5095822;28;20035;-75
2022/09/22 04:59:21;;;;;;;6.22;3.95;;;3.30;99.90;;;;;;5095533;28;20488;-75
2022/09/22 05:01:47;;;;;;;4.68;2.70;;;3.40;99.90;;;;;;5095392;28;20365;-75
2022/09/22 05:04:13;;;;;;;4.80;2.60;;;3.50;99.90;;;;;;5095329;28;20056;-76
2022/09/22 05:06:40;;;;;;;5.68;3.85;;;3.50;99.90;;;;;;5095314;28;20093;-75
2022/09/22 05:09:06;;;;;;;7.45;4.57;;;3.50;99.90;;;;;;5095776;28;20384;-75
2022/09/22 05:11:31;;;;;;;9.55;5.50;;;3.50;99.90;;;;;;5095685;28;20036;-75
2022/09/22 05:13:57;;;;;;;10.27;5.32;;;3.40;99.90;;;;;;5095299;28;20099;-76
2022/09/22 05:16:24;;;;;;;7.07;4.45;;;3.40;99.90;;;;;;5095297;28;20464;-76
2022/09/22 05:18:49;;;;;;;5.13;3.40;;;3.50;99.90;;;;;;5095104;28;20357;-75
2022/09/22 05:21:19;;;;;;;10.70;4.07;;;3.50;99.90;;;;;;5094870;28;20028;-75
2022/09/22 05:23:45;;;;;;;8.13;4.32;;;3.60;99.90;;;;;;5095003;28;20024;-75
2022/09/22 05:26:11;;;;;;;7.22;3.78;;;3.60;99.90;;;;;;5094967;28;20480;-75
2022/09/22 05:28:37;;;;;;;5.53;3.30;;;3.70;99.90;;;;;;5094971;28;20047;-75
2022/09/22 05:31:03;;;;;;;8.20;3.10;;;3.70;99.90;;;;;;5095412;28;20463;-75
2022/09/22 05:33:29;;;;;;;6.80;3.35;;;3.70;99.90;;;;;;5094741;28;20484;-74
2022/09/22 05:35:55;;;;;;;6.90;3.42;;;3.70;99.90;;;;;;5094531;28;20027;-75
2022/09/22 05:38:21;;;;;;;7.97;3.20;;;3.70;99.90;;;;;;5094435;28;20379;-75
2022/09/22 05:40:46;;;;;;;7.53;4.00;;;3.70;99.90;;;;;;5094581;28;20512;-75
2022/09/22 05:43:12;;;;;;;6.70;3.45;;;3.70;99.90;;;;;;5094905;28;20427;-75
2022/09/22 05:45:38;;;;;;;7.82;3.22;;;3.70;99.90;;;;;;5076351;28;20039;-75
2022/09/22 05:48:04;;;;;;;6.72;3.85;;;3.70;99.90;;;;;;5094528;28;20078;-75
2022/09/22 05:50:30;;;;;;;5.68;3.28;;;3.70;99.90;;;;;;5094272;28;20060;-75
2022/09/22 05:53:07;;;;;;;5.22;3.40;;;3.60;99.90;;;;;;5094123;28;20118;-75
2022/09/22 05:55:34;;;;;;;6.45;3.17;;;3.70;99.90;;;;;;5094552;28;20058;-75
2022/09/22 05:57:59;;;;;;;6.10;3.25;;;3.60;99.90;;;;;;5076190;28;20071;-75
2022/09/22 06:00:26;;;;;;;6.38;3.30;;;3.70;99.90;;;;;;5076210;28;20048;-75
2022/09/22 06:02:52;;;;;;;6.43;3.08;;;3.80;99.90;;;;;;5094534;28;20375;-75
2022/09/22 06:05:18;;;;;;;5.35;3.45;;;3.80;99.90;;;;;;5094400;28;20039;-75
2022/09/22 06:07:44;;;;;;;6.55;3.65;;;3.90;99.90;;;;;;5093929;28;20039;-75
2022/09/22 06:10:13;;;;;;;6.68;3.50;;;4.00;99.90;;;;;;5093468;28;20028;-75
2022/09/22 06:12:39;;;;;;;4.88;2.95;;;4.00;99.90;;;;;;5076725;28;20386;-75
2022/09/22 06:15:05;;;;;;;5.15;3.30;;;4.10;99.90;;;;;;5093898;28;20035;-75
2022/09/22 06:17:31;;;;;;;5.13;3.28;;;4.10;99.90;;;;;;5094171;28;20027;-75
2022/09/22 06:19:59;;;;;;;4.65;2.75;;;4.10;99.90;;;;;;5093794;28;20016;-75
2022/09/22 06:22:25;;;;;;;5.03;3.05;;;4.20;99.90;;;;;;5093876;28;20027;-75
2022/09/22 06:24:51;;;;;;;6.32;3.38;;;4.20;99.90;;;;;;5093907;28;20476;-75
2022/09/22 06:27:17;;;;;;;8.02;3.97;;;4.30;99.90;;;;;;5093785;28;20024;-75
2022/09/22 06:29:43;;;;;;;6.88;3.72;;;4.30;99.90;;;;;;5093638;28;20032;-75
2022/09/22 06:32:09;;;;;;;8.00;4.28;;;4.30;99.90;;;;;;5093966;28;20027;-76
2022/09/22 06:34:36;;;;;;;7.70;3.70;;;4.40;99.90;;;;;;5093873;28;20086;-75
2022/09/22 06:37:08;;;;;;;7.55;3.42;;;4.40;99.90;;;;;;5093514;28;20388;-75
2022/09/22 06:39:36;;;;;;;8.70;3.80;;;4.50;99.90;;;;;;5093848;28;20024;-75
2022/09/22 06:42:03;;;;;;;9.52;4.45;;;4.50;99.90;;;;;;5093581;28;20028;-75
2022/09/22 06:44:30;;;;;;;9.23;4.15;;;4.50;99.90;;;;;;5093791;28;20058;-75
2022/09/22 06:46:55;;;;;;;8.45;3.47;;;4.50;99.90;;;;;;5093693;28;20024;-75
2022/09/22 06:49:21;;;;;;;8.07;3.17;;;4.60;99.90;;;;;;5075207;28;20032;-74
2022/09/22 06:51:48;;;;;;;7.68;3.70;;;4.70;99.90;;;;;;5093201;28;20020;-75
2022/09/22 06:54:14;;;;;;;7.05;3.58;;;4.80;99.90;;;;;;5093627;28;20027;-74
2022/09/22 06:56:42;;;;;;;7.55;3.63;;;4.80;99.90;;;;;;5092775;28;20115;-73
2022/09/22 06:59:13;;;;;;;6.88;3.05;;;4.80;99.90;;;;;;5092864;28;20020;-75
2022/09/22 07:01:40;;;;;;;5.75;3.03;;;4.70;99.90;;;;;;5093256;28;20162;-75
2022/09/22 07:04:07;;;;;;;6.80;2.88;;;4.70;99.90;;;;;;5093202;28;20480;-75
2022/09/22 07:06:32;;;;;;;8.57;3.80;;;4.70;99.90;;;;;;5093230;28;20110;-75
2022/09/22 07:08:58;;;;;;;5.53;3.45;;;4.70;99.90;;;;;;5093081;28;20101;-75
2022/09/22 07:11:24;;;;;;;7.18;3.10;;;4.60;99.90;;;;;;5093203;28;20480;-75
2022/09/22 07:13:52;;;;;;;6.63;3.28;;;4.70;99.90;;;;;;5093637;28;20032;-76
2022/09/22 07:16:19;;;;;;;5.93;3.60;;;4.70;99.90;;;;;;5093381;28;20024;-75
2022/09/22 07:18:51;;;;;;;5.10;2.97;;;4.80;99.90;;;;;;5093457;28;20407;-75
2022/09/22 07:21:21;;;;;;;;;;;4.90;99.90;;;;;;5093408;28;20020;-75
2022/09/22 07:23:48;;;;;;;8.02;4.40;;;5.00;99.90;;;;;;5095779;28;19908;-75
2022/09/22 07:26:17;;;;;;;8.73;3.92;;;5.10;99.90;;;;;;5079077;28;20545;-75
2022/09/22 07:28:45;;;;;;;9.98;4.45;;;5.20;99.90;;;;;;5097455;28;20032;-75
2022/09/22 07:31:12;;;;;;;8.40;4.50;;;5.30;99.90;;;;;;5097136;28;20400;-75
2022/09/22 07:33:41;;;;;;;11.23;6.32;;;5.30;99.90;;;;;;5097137;28;20020;-75
2022/09/22 07:36:26;;;;;;;10.45;5.40;;;5.50;99.90;;;;;;5097005;28;20073;-75
2022/09/22 07:38:53;;;;;;;10.65;4.68;;;5.70;99.90;;;;;;5096852;28;20016;-75
2022/09/22 07:41:22;;;;;;;14.88;6.47;;;5.80;99.90;;;;;;5097169;28;20024;-75
2022/09/22 07:43:50;;;;;;;12.57;6.03;;;5.90;99.90;;;;;;5097153;28;20027;-75
2022/09/22 07:46:16;;;;;;;15.02;6.60;;;5.90;99.90;;;;;;5096862;28;20153;-75
2022/09/22 07:48:45;;;;;;;11.55;6.72;;;6.00;99.90;;;;;;5096717;28;20484;-74
2022/09/22 07:51:18;;;;;;;8.50;4.72;;;6.10;99.90;;;;;;5079165;28;20557;-75
2022/09/22 07:53:46;;;;;;;12.45;6.47;;;6.10;99.90;;;;;;5096558;28;20020;-75
2022/09/22 07:56:15;;;;;;;10.88;6.90;;;6.20;99.90;;;;;;5096595;28;20389;-75
2022/09/22 07:58:52;;;;;;;11.80;6.60;;;6.20;99.90;;;;;;5096678;28;20024;-75
2022/09/22 08:01:19;;;;;;;8.65;4.78;;;6.30;99.90;;;;;;5097130;28;20368;-75
2022/09/22 08:03:46;;;;;;;10.35;5.10;;;6.40;99.90;;;;;;5096559;28;20023;-76
2022/09/22 08:06:13;;;;;;;9.65;4.70;;;6.60;99.90;;;;;;5096869;28;20051;-75
2022/09/22 08:08:41;;;;;;;9.63;4.10;;;6.70;99.90;;;;;;5096391;28;20115;-75
2022/09/22 08:11:12;;;;;;;10.90;5.57;;;6.90;99.90;;;;;;5096420;28;20024;-76
2022/09/22 08:13:38;;;;;;;11.52;5.70;;;7.00;99.90;;;;;;5096645;28;20024;-75
2022/09/22 08:16:05;;;;;;;6.13;4.05;;;7.10;99.90;;;;;;5096507;28;20040;-76
2022/09/22 08:18:33;;;;;;;7.30;4.22;;;7.20;99.90;;;;;;5078048;28;20471;-75
2022/09/22 08:21:00;;;;;;;6.50;4.10;;;7.30;99.90;;;;;;5096199;28;20024;-76
2022/09/22 08:23:29;;;;;;;8.25;4.55;;;7.40;99.90;;;;;;5096233;28;20024;-76
2022/09/22 08:26:05;;;;;;;7.40;4.00;;;7.50;99.90;;;;;;5096038;28;20042;-75
2022/09/22 08:28:31;;;;;;;5.05;3.40;;;7.50;99.90;;;;;;5096268;28;20058;-75
2022/09/22 08:30:59;;;;;;;5.53;2.90;;;7.70;99.90;;;;;;5096002;28;20028;-76
2022/09/22 08:33:26;;;;;;;5.47;3.50;;;7.80;99.90;;;;;;5095113;28;20449;-75
2022/09/22 08:36:02;;;;;;;7.20;3.63;;;7.90;99.90;;;;;;5077682;28;20111;-75
2022/09/22 08:38:29;;;;;;;4.95;3.00;;;8.00;99.90;;;;;;5077216;28;20071;-75
2022/09/22 08:41:16;;;;;;;4.30;2.88;;;8.10;99.90;;;;;;5095741;28;20085;-76
2022/09/22 08:43:54;;;;;;;5.97;2.95;;;8.30;99.90;;;;;;5077419;28;20024;-75
2022/09/22 08:46:25;;;;;;;4.38;2.55;;;8.40;99.90;;;;;;5095708;28;20099;-75
2022/09/22 08:51:51;;;;;;;3.88;1.98;;;8.80;99.90;;;;;;5063875;28;20044;-76
2022/09/22 08:54:30;;;;;;;3.63;1.73;;;8.90;99.90;;;;;;5095233;28;20020;-76
2022/09/22 08:56:59;;;;;;;4.57;1.70;;;9.10;99.90;;;;;;5095152;28;20039;-75
2022/09/22 08:59:34;;;;;;;4.25;1.90;;;9.20;99.90;;;;;;5095379;28;20028;-76
2022/09/22 09:02:24;;;;;;;5.20;2.13;;;9.40;99.90;;;;;;5095666;28;20547;-76
2022/09/22 09:05:09;;;;;;;2.83;1.85;;;9.50;99.90;;;;;;5095417;28;20028;-76
2022/09/22 09:07:42;;;;;;;3.33;1.95;;;9.70;99.90;;;;;;5095123;28;20030;-75
2022/09/22 09:10:37;;;;;;;3.47;1.85;;;9.80;99.90;;;;;;5095236;28;20016;-75
2022/09/22 09:13:28;;;;;;;2.70;1.60;;;10.00;99.90;;;;;;5064094;28;20032;-76
2022/09/22 09:16:09;;;;;;;4.75;1.30;;;10.20;99.90;;;;;;5095039;28;20093;-75
2022/09/22 09:18:39;;;;;;;;;;;10.30;99.90;;;;;;5095615;28;20119;-75
2022/09/22 09:21:09;;;;;;;1.50;0.80;;;10.40;99.90;;;;;;5076801;28;20371;-75
2022/09/22 09:23:44;;;;;;;2.47;1.02;;;10.50;99.90;;;;;;5094848;28;20020;-75
2022/09/22 09:26:12;;;;;;;2.72;1.10;;;10.70;99.90;;;;;;5095451;28;20028;-75
2022/09/22 09:28:43;;;;;;;4.45;1.60;;;10.80;99.90;;;;;;5095162;28;20035;-75
2022/09/22 09:31:16;;;;;;;3.47;1.17;;;10.80;99.90;;;;;;5095369;28;20119;-72
2022/09/22 09:34:01;;;;;;;3.83;1.00;;;11.00;99.90;;;;;;5095170;28;20103;-72
2022/09/22 09:36:31;;;;;;;2.80;1.40;;;11.10;99.90;;;;;;5094876;28;20108;-72
2022/09/22 09:39:01;;;;;;;3.60;1.45;;;11.20;99.90;;;;;;5094636;28;20048;-72
2022/09/22 09:41:34;;;;;;;1.83;1.02;;;11.30;99.90;;;;;;5094676;28;20023;-72
2022/09/22 09:44:01;;;;;;;1.70;1.00;;;11.50;99.90;;;;;;5094649;28;20365;-71
2022/09/22 09:46:33;;;;;;;4.47;1.20;;;11.60;99.90;;;;;;5093672;28;20032;-71
2022/09/22 09:49:14;;;;;;;3.47;1.48;;;11.60;99.90;;;;;;5076481;28;20103;-71
2022/09/22 09:51:53;;;;;;;2.13;1.45;;;11.80;99.90;;;;;;5094349;28;20032;-71
2022/09/22 09:54:19;;;;;;;2.92;1.27;;;11.90;99.90;;;;;;5094345;28;20379;-72
2022/09/22 09:57:03;;;;;;;4.45;1.30;;;12.10;99.90;;;;;;5076205;28;20465;-72
2022/09/22 10:02:16;;;;;;;2.72;1.08;;;12.20;98.40;;;;;;5079181;28;20031;-72
2022/09/22 10:04:52;;;;;;;1.75;1.00;;;12.40;99.10;;;;;;5094589;28;20055;-71
2022/09/22 10:07:20;;;;;;;2.08;0.93;;;12.50;99.00;;;;;;5093993;28;20025;-71
2022/09/22 10:09:50;;;;;;;2.58;1.10;;;12.60;98.50;;;;;;5075888;28;20028;-71
2022/09/22 10:12:28;;;;;;;2.57;1.03;;;12.70;97.90;;;;;;5094031;28;20043;-71
2022/09/22 10:14:59;;;;;;;2.88;0.82;;;12.80;98.00;;;;;;5093929;28;20023;-71
2022/09/22 10:17:39;;;;;;;1.52;0.80;;;12.90;98.60;;;;;;5075762;28;20510;-71
2022/09/22 10:20:23;;;;;;;5.38;0.90;;;13.10;97.60;;;;;;5075602;28;20085;-71
2022/09/22 10:22:49;;;;;;;1.13;0.60;;;13.20;96.50;;;;;;5093658;28;20494;-70
2022/09/22 10:25:19;;;;;;;1.30;0.60;;;13.30;95.20;;;;;;5093874;28;20110;-71
2022/09/22 10:28:01;;;;;;;2.60;0.93;;;13.40;94.60;;;;;;5093901;28;20353;-71
2022/09/22 10:30:28;;;;;;;2.83;1.00;;;13.50;94.40;;;;;;5093739;28;20028;-71
2022/09/22 10:33:04;;;;;;;1.08;0.68;;;13.60;93.10;;;;;;5093990;28;20059;-71
2022/09/22 10:35:32;;;;;;;1.50;0.70;;;13.60;93.30;;;;;;5093923;28;20450;-71
2022/09/22 10:38:09;;;;;;;1.13;0.40;;;13.70;91.50;;;;;;5093510;28;20024;-71
2022/09/22 10:40:38;;;;;;;0.50;0.30;;;13.80;90.60;;;;;;5094784;28;20051;-71
2022/09/22 10:43:13;;;;;;;0.90;0.45;;;13.80;87.00;;;;;;5095669;28;20363;-72
2022/09/22 10:46:07;;;;;;;1.70;0.50;;;13.90;86.70;;;;;;5094215;28;20460;-71
2022/09/22 10:48:39;;;;;;;1.58;0.47;;;14.00;86.30;;;;;;5093399;28;20045;-71
2022/09/22 10:51:20;;;;;;;0.82;0.40;;;14.10;83.90;;;;;;5093408;28;20069;-71
2022/09/22 10:54:16;;;;;;;0.88;0.50;;;14.10;87.10;;;;;;5093183;28;20393;-71
2022/09/22 10:56:57;;;;;;;1.08;0.60;;;14.20;86.60;;;;;;5074914;28;20028;-71
2022/09/22 10:59:43;;;;;;;1.00;0.43;;;14.30;88.70;;;;;;5093918;28;20020;-70
2022/09/22 11:02:30;;;;;;;0.95;0.45;;;14.40;86.40;;;;;;5093364;28;20024;-71
2022/09/22 11:14:34;;;;;;;0.93;0.30;;;14.90;88.10;;;;;;5093158;28;20035;-70
2022/09/22 11:17:14;;;;;;;1.50;0.50;;;15.00;83.70;;;;;;5093347;28;20024;-69
2022/09/22 11:20:22;;;;;;;0.52;0.38;;;15.10;82.70;;;;;;5093054;28;20032;-69
2022/09/22 11:23:13;;;;;;;1.40;0.50;;;15.10;81.30;;;;;;5081931;28;20036;-70
2022/09/22 11:26:33;;;;;;;1.65;0.50;;;15.20;82.80;;;;;;5093400;28;20055;-70
2022/09/22 11:29:19;;;;;;;4.55;0.82;;;15.40;81.10;;;;;;5011122;28;20038;-70
2022/09/22 11:31:52;;;;;;;1.58;0.47;;;15.50;78.70;;;;;;5069763;28;20066;-70
2022/09/22 11:34:30;;;;;;;1.63;0.35;;;15.50;74.30;;;;;;5093348;28;20085;-70
2022/09/22 11:37:26;;;;;;;1.15;0.52;;;15.60;78.80;;;;;;5092952;28;20103;-70
2022/09/22 11:40:24;;;;;;;2.30;0.60;;;15.60;72.00;;;;;;5074559;28;20020;-70
2022/09/22 11:43:01;;;;;;;0.57;0.40;;;15.70;70.10;;;;;;5093275;28;20020;-70
2022/09/22 11:45:53;;;;;;;1.08;0.60;;;15.70;66.00;;;;;;5092926;28;20093;-70
2022/09/22 11:48:56;;;;;;;1.80;0.30;;;15.70;70.80;;;;;;5093479;28;20429;-70
2022/09/22 11:51:55;;;;;;;1.33;0.88;;;15.80;63.70;;;;;;5092790;28;20467;-69
2022/09/22 11:54:48;;;;;;;0.70;0.50;;;15.80;67.50;;;;;;5092687;28;20097;-70
2022/09/22 11:57:18;;;;;;;0.63;0.30;;;15.90;68.00;;;;;;5092926;28;20020;-70
2022/09/22 11:59:56;;;;;;;0.70;0.30;;;16.00;63.20;;;;;;5092701;28;20027;-70
2022/09/22 12:02:41;;;;;;;0.90;0.30;;;16.00;59.90;;;;;;5093101;28;20012;-70
2022/09/22 12:05:10;;;;;;;2.97;0.38;;;16.10;61.40;;;;;;5073122;28;20092;-70
2022/09/22 12:07:49;;;;;;;0.40;0.30;;;16.20;62.10;;;;;;5052535;28;20162;-70
2022/09/22 12:10:21;;;;;;;1.60;0.30;;;16.20;60.20;;;;;;5056166;28;20029;-70
2022/09/22 12:12:50;;;;;;;0.63;0.32;;;16.30;58.70;;;;;;5056725;28;20102;-72
2022/09/22 12:15:37;;;;;;;1.88;0.68;;;16.30;57.40;;;;;;5056008;28;20119;-72
2022/09/22 12:18:43;;;;;;;0.75;0.50;;;16.50;59.80;;;;;;5056296;28;20369;-72
2022/09/22 12:21:37;;;;;;;0.70;0.40;;;16.60;60.40;;;;;;5075614;28;20441;-71
2022/09/22 12:24:07;;;;;;;1.27;0.40;;;16.70;58.40;;;;;;5068549;28;20503;-69
2022/09/22 12:26:35;;;;;;;3.13;0.45;;;16.70;59.10;;;;;;5066270;28;20036;-72
2022/09/22 12:29:12;;;;;;;0.65;0.28;;;16.70;57.20;;;;;;5067151;28;20488;-71
2022/09/22 12:31:40;;;;;;;0.75;0.30;;;16.70;57.10;;;;;;5065903;28;20025;-71
2022/09/22 12:34:18;;;;;;;1.13;0.40;;;16.80;57.30;;;;;;5060557;28;20029;-71
2022/09/22 12:36:45;;;;;;;0.88;0.40;;;17.00;59.70;;;;;;5046149;28;20672;-71
2022/09/22 12:39:10;;;;;;;1.35;0.40;;;17.10;58.30;;;;;;5066525;28;20511;-71
2022/09/22 12:42:04;;;;;;;0.88;0.40;;;17.20;62.20;;;;;;5055547;28;20057;-71
2022/09/22 12:44:54;;;;;;;0.70;0.30;;;17.20;61.50;;;;;;5057231;28;20403;-71
2022/09/22 12:47:31;;;;;;;1.67;0.40;;;17.20;63.10;;;;;;5075555;28;20066;-69
2022/09/22 12:49:59;;;;;;;0.40;0.30;;;17.10;62.10;;;;;;5074512;28;20101;-71
2022/09/22 12:52:35;;;;;;;1.10;0.50;;;17.10;57.70;;;;;;5066937;28;20028;-69
2022/09/22 12:55:28;;;;;;;1.63;0.50;;;17.10;61.60;;;;;;5067654;28;20396;-70
2022/09/22 12:57:56;;;;;;;0.82;0.38;;;17.10;62.70;;;;;;5061102;28;20472;-71
2022/09/22 13:00:38;;;;;;;1.27;0.70;;;17.20;62.00;;;;;;5060854;28;20033;-71
2022/09/22 13:03:25;;;;;;;0.60;0.32;;;17.20;61.80;;;;;;5068218;28;20019;-71
2022/09/22 13:06:03;;;;;;;0.80;0.40;;;17.20;64.00;;;;;;5060922;28;20082;-71
2022/09/22 13:08:31;;;;;;;1.50;0.45;;;17.30;65.80;;;;;;5066859;28;20025;-70
2022/09/22 13:11:08;;;;;;;0.50;0.30;;;17.30;65.70;;;;;;5060686;28;20043;-71
2022/09/22 13:13:35;;;;;;;1.08;0.40;;;17.30;65.20;;;;;;5067661;28;20037;-71
2022/09/22 13:16:21;;;;;;;1.02;0.70;;;17.40;66.10;;;;;;5067117;28;20036;-71
2022/09/22 13:18:53;;;;;;;0.85;0.50;;;17.40;62.80;;;;;;5060613;28;20029;-70
2022/09/22 13:21:24;;;;;;;0.50;0.30;;;17.30;64.00;;;;;;5047873;28;20017;-70
2022/09/22 13:23:50;;;;;;;1.23;0.40;;;17.20;63.30;;;;;;5066598;28;20111;-69
2022/09/22 13:26:18;;;;;;;1.02;0.52;;;17.20;64.20;;;;;;5066748;28;20029;-71
2022/09/22 13:28:44;;;;;;;1.15;0.50;;;17.20;63.10;;;;;;5048832;28;20388;-71
2022/09/22 13:31:16;;;;;;;1.02;0.60;;;17.20;63.30;;;;;;5067162;28;20035;-69
2022/09/22 13:33:43;;;;;;;1.45;0.57;;;17.10;62.90;;;;;;5060394;28;20074;-70